sensor_id;sensor_type;location;lat;lon;timestamp;P1;durP1;ratioP1;P2;durP2;ratioP2
13743;SDS011;6943;52.368;9.966;2022-10-16T00:02:23;3.30;;;1.30;;
13743;SDS011;6943;52.368;9.966;2022-10-16T00:04:49;2.40;;;1.10;;
13743;SDS011;6943;52.368;9.966;2022-10-16T00:07:14;4.13;;;1.20;;
13743;SDS011;6943;52.368;9.966;2022-10-16T00:09:40;3.10;;;1.10;;
13743;SDS011;6943;52.368;9.966;2022-10-16T00:12:05;4.37;;;1.20;;
13743;SDS011;6943;52.368;9.966;2022-10-16T00:14:32;2.93;;;1.10;;
13743;SDS011;6943;52.368;9.966;2022-10-16T00:16:57;1.57;;;1.03;;
13743;SDS011;6943;52.368;9.966;2022-10-16T00:19:23;2.50;;;1.10;;
13743;SDS011;6943;52.368;9.966;2022-10-16T00:21:48;1.40;;;1.00;;
13743;SDS011;6943;52.368;9.966;2022-10-16T00:24:14;1.53;;;1.00;;
13743;SDS011;6943;52.368;9.966;2022-10-16T00:26:39;1.30;;;0.90;;
13743;SDS011;6943;52.368;9.966;2022-10-16T00:29:07;2.63;;;1.00;;
13743;SDS011;6943;52.368;9.966;2022-10-16T00:31:33;1.93;;;1.00;;
13743;SDS011;6943;52.368;9.966;2022-10-16T00:33:58;4.50;;;1.20;;
13743;SDS011;6943;52.368;9.966;2022-10-16T00:36:25;3.20;;;1.20;;
13743;SDS011;6943;52.368;9.966;2022-10-16T00:38:52;2.03;;;1.20;;
13743;SDS011;6943;52.368;9.966;2022-10-16T00:41:19;2.33;;;1.40;;
13743;SDS011;6943;52.368;9.966;2022-10-16T00:46:17;2.67;;;1.57;;
13743;SDS011;6943;52.368;9.966;2022-10-16T00:49:08;1.30;;;1.10;;
13743;SDS011;6943;52.368;9.966;2022-10-16T00:51:40;4.57;;;1.40;;
13743;SDS011;6943;52.368;9.966;2022-10-16T00:54:09;3.33;;;1.40;;
13743;SDS011;6943;52.368;9.966;2022-10-16T00:56:38;1.57;;;1.30;;
13743;SDS011;6943;52.368;9.966;2022-10-16T00:59:04;1.77;;;1.30;;
13743;SDS011;6943;52.368;9.966;2022-10-16T01:01:35;1.53;;;1.27;;
13743;SDS011;6943;52.368;9.966;2022-10-16T01:04:01;1.77;;;1.43;;
13743;SDS011;6943;52.368;9.966;2022-10-16T01:09:21;1.73;;;1.20;;
13743;SDS011;6943;52.368;9.966;2022-10-16T01:14:53;1.93;;;1.30;;
13743;SDS011;6943;52.368;9.966;2022-10-16T01:20:11;4.40;;;1.57;;
13743;SDS011;6943;52.368;9.966;2022-10-16T01:28:24;1.97;;;1.60;;
13743;SDS011;6943;52.368;9.966;2022-10-16T01:30:58;1.90;;;1.60;;
13743;SDS011;6943;52.368;9.966;2022-10-16T01:33:36;2.40;;;1.80;;
13743;SDS011;6943;52.368;9.966;2022-10-16T01:36:17;3.13;;;1.70;;
13743;SDS011;6943;52.368;9.966;2022-10-16T01:38:47;2.37;;;1.93;;
13743;SDS011;6943;52.368;9.966;2022-10-16T01:41:21;1.80;;;1.70;;
13743;SDS011;6943;52.368;9.966;2022-10-16T01:44:06;3.90;;;1.90;;
13743;SDS011;6943;52.368;9.966;2022-10-16T01:46:36;4.97;;;2.00;;
13743;SDS011;6943;52.368;9.966;2022-10-16T01:49:04;1.90;;;1.80;;
13743;SDS011;6943;52.368;9.966;2022-10-16T01:51:31;3.43;;;2.43;;
13743;SDS011;6943;52.368;9.966;2022-10-16T01:53:59;4.60;;;2.40;;
13743;SDS011;6943;52.368;9.966;2022-10-16T01:56:26;2.63;;;2.10;;
13743;SDS011;6943;52.368;9.966;2022-10-16T01:58:55;2.70;;;2.50;;
13743;SDS011;6943;52.368;9.966;2022-10-16T02:01:28;3.87;;;2.60;;
13743;SDS011;6943;52.368;9.966;2022-10-16T02:03:57;2.50;;;2.30;;
13743;SDS011;6943;52.368;9.966;2022-10-16T02:06:26;4.40;;;2.53;;
13743;SDS011;6943;52.368;9.966;2022-10-16T02:08:53;4.57;;;3.17;;
13743;SDS011;6943;52.368;9.966;2022-10-16T02:11:18;3.00;;;2.70;;
13743;SDS011;6943;52.368;9.966;2022-10-16T02:13:58;3.50;;;2.93;;
13743;SDS011;6943;52.368;9.966;2022-10-16T02:16:37;3.73;;;3.20;;
13743;SDS011;6943;52.368;9.966;2022-10-16T02:19:05;4.13;;;2.80;;
13743;SDS011;6943;52.368;9.966;2022-10-16T02:21:39;3.67;;;3.27;;
13743;SDS011;6943;52.368;9.966;2022-10-16T02:26:45;4.40;;;3.30;;
13743;SDS011;6943;52.368;9.966;2022-10-16T02:29:16;3.87;;;3.33;;
13743;SDS011;6943;52.368;9.966;2022-10-16T02:31:48;5.97;;;3.53;;
13743;SDS011;6943;52.368;9.966;2022-10-16T02:34:16;4.30;;;3.40;;
13743;SDS011;6943;52.368;9.966;2022-10-16T02:36:45;4.17;;;3.77;;
13743;SDS011;6943;52.368;9.966;2022-10-16T02:39:14;5.57;;;3.57;;
13743;SDS011;6943;52.368;9.966;2022-10-16T02:41:41;4.57;;;3.50;;
13743;SDS011;6943;52.368;9.966;2022-10-16T02:44:07;4.50;;;3.60;;
13743;SDS011;6943;52.368;9.966;2022-10-16T02:46:33;3.67;;;3.37;;
13743;SDS011;6943;52.368;9.966;2022-10-16T02:48:58;4.50;;;3.67;;
13743;SDS011;6943;52.368;9.966;2022-10-16T02:51:24;4.97;;;3.57;;
13743;SDS011;6943;52.368;9.966;2022-10-16T02:53:49;5.83;;;3.40;;
13743;SDS011;6943;52.368;9.966;2022-10-16T02:56:15;3.80;;;3.30;;
13743;SDS011;6943;52.368;9.966;2022-10-16T02:58:40;5.03;;;3.20;;
13743;SDS011;6943;52.368;9.966;2022-10-16T03:01:05;3.57;;;3.27;;
13743;SDS011;6943;52.368;9.966;2022-10-16T03:03:31;4.43;;;2.90;;
13743;SDS011;6943;52.368;9.966;2022-10-16T03:05:57;4.57;;;3.20;;
13743;SDS011;6943;52.368;9.966;2022-10-16T03:08:22;5.43;;;3.37;;
13743;SDS011;6943;52.368;9.966;2022-10-16T03:10:50;4.63;;;3.03;;
13743;SDS011;6943;52.368;9.966;2022-10-16T03:13:16;4.43;;;3.37;;
13743;SDS011;6943;52.368;9.966;2022-10-16T03:15:43;4.17;;;3.60;;
13743;SDS011;6943;52.368;9.966;2022-10-16T03:18:08;6.20;;;3.50;;
13743;SDS011;6943;52.368;9.966;2022-10-16T03:20:34;4.67;;;3.73;;
13743;SDS011;6943;52.368;9.966;2022-10-16T03:22:59;3.90;;;3.30;;
13743;SDS011;6943;52.368;9.966;2022-10-16T03:25:25;8.23;;;4.23;;
13743;SDS011;6943;52.368;9.966;2022-10-16T03:27:50;5.63;;;3.90;;
13743;SDS011;6943;52.368;9.966;2022-10-16T03:30:16;4.23;;;3.80;;
13743;SDS011;6943;52.368;9.966;2022-10-16T03:32:43;6.07;;;3.53;;
13743;SDS011;6943;52.368;9.966;2022-10-16T03:35:09;4.87;;;4.03;;
13743;SDS011;6943;52.368;9.966;2022-10-16T03:37:35;4.67;;;4.03;;
13743;SDS011;6943;52.368;9.966;2022-10-16T03:40:01;5.70;;;3.83;;
13743;SDS011;6943;52.368;9.966;2022-10-16T03:42:27;6.57;;;4.70;;
13743;SDS011;6943;52.368;9.966;2022-10-16T03:44:52;5.80;;;3.93;;
13743;SDS011;6943;52.368;9.966;2022-10-16T03:47:18;4.30;;;3.43;;
13743;SDS011;6943;52.368;9.966;2022-10-16T03:49:46;3.87;;;3.50;;
13743;SDS011;6943;52.368;9.966;2022-10-16T03:52:12;4.40;;;3.60;;
13743;SDS011;6943;52.368;9.966;2022-10-16T03:54:38;6.03;;;3.93;;
13743;SDS011;6943;52.368;9.966;2022-10-16T03:57:04;4.90;;;3.70;;
13743;SDS011;6943;52.368;9.966;2022-10-16T03:59:29;4.63;;;3.57;;
13743;SDS011;6943;52.368;9.966;2022-10-16T04:01:55;3.73;;;3.07;;
13743;SDS011;6943;52.368;9.966;2022-10-16T04:04:20;3.60;;;3.03;;
13743;SDS011;6943;52.368;9.966;2022-10-16T04:06:46;5.47;;;3.20;;
13743;SDS011;6943;52.368;9.966;2022-10-16T04:09:11;3.47;;;2.50;;
13743;SDS011;6943;52.368;9.966;2022-10-16T04:11:37;4.23;;;2.60;;
13743;SDS011;6943;52.368;9.966;2022-10-16T04:14:02;5.13;;;2.60;;
13743;SDS011;6943;52.368;9.966;2022-10-16T04:16:28;5.33;;;2.70;;
13743;SDS011;6943;52.368;9.966;2022-10-16T04:18:53;4.70;;;3.10;;
13743;SDS011;6943;52.368;9.966;2022-10-16T04:21:19;5.80;;;2.40;;
13743;SDS011;6943;52.368;9.966;2022-10-16T04:23:44;7.37;;;2.80;;
13743;SDS011;6943;52.368;9.966;2022-10-16T04:26:10;3.63;;;2.80;;
13743;SDS011;6943;52.368;9.966;2022-10-16T04:28:35;5.37;;;2.93;;
13743;SDS011;6943;52.368;9.966;2022-10-16T04:31:03;6.30;;;2.80;;
13743;SDS011;6943;52.368;9.966;2022-10-16T04:33:29;3.93;;;3.23;;
13743;SDS011;6943;52.368;9.966;2022-10-16T04:35:59;3.77;;;3.10;;
13743;SDS011;6943;52.368;9.966;2022-10-16T04:38:25;4.10;;;3.00;;
13743;SDS011;6943;52.368;9.966;2022-10-16T04:40:51;4.03;;;3.13;;
13743;SDS011;6943;52.368;9.966;2022-10-16T04:43:17;3.83;;;2.77;;
13743;SDS011;6943;52.368;9.966;2022-10-16T04:45:43;3.73;;;2.80;;
13743;SDS011;6943;52.368;9.966;2022-10-16T04:48:09;3.87;;;3.13;;
13743;SDS011;6943;52.368;9.966;2022-10-16T04:50:35;4.67;;;3.53;;
13743;SDS011;6943;52.368;9.966;2022-10-16T04:53:00;6.60;;;3.03;;
13743;SDS011;6943;52.368;9.966;2022-10-16T04:55:25;4.07;;;2.60;;
13743;SDS011;6943;52.368;9.966;2022-10-16T04:57:51;5.67;;;3.30;;
13743;SDS011;6943;52.368;9.966;2022-10-16T05:00:17;4.83;;;3.50;;
13743;SDS011;6943;52.368;9.966;2022-10-16T05:02:42;3.73;;;3.17;;
13743;SDS011;6943;52.368;9.966;2022-10-16T05:05:08;4.87;;;3.20;;
13743;SDS011;6943;52.368;9.966;2022-10-16T05:07:33;6.00;;;3.47;;
13743;SDS011;6943;52.368;9.966;2022-10-16T05:09:59;6.70;;;3.17;;
13743;SDS011;6943;52.368;9.966;2022-10-16T05:12:24;4.93;;;3.27;;
13743;SDS011;6943;52.368;9.966;2022-10-16T05:14:50;6.30;;;2.90;;
13743;SDS011;6943;52.368;9.966;2022-10-16T05:17:16;5.37;;;2.97;;
13743;SDS011;6943;52.368;9.966;2022-10-16T05:19:41;7.03;;;3.53;;
13743;SDS011;6943;52.368;9.966;2022-10-16T05:22:07;5.60;;;3.00;;
13743;SDS011;6943;52.368;9.966;2022-10-16T05:24:32;3.60;;;3.23;;
13743;SDS011;6943;52.368;9.966;2022-10-16T05:26:58;3.40;;;3.03;;
13743;SDS011;6943;52.368;9.966;2022-10-16T05:29:23;4.87;;;3.57;;
13743;SDS011;6943;52.368;9.966;2022-10-16T05:31:49;5.37;;;3.10;;
13743;SDS011;6943;52.368;9.966;2022-10-16T05:34:16;4.27;;;2.90;;
13743;SDS011;6943;52.368;9.966;2022-10-16T05:36:42;5.80;;;3.13;;
13743;SDS011;6943;52.368;9.966;2022-10-16T05:39:10;5.57;;;3.07;;
13743;SDS011;6943;52.368;9.966;2022-10-16T05:41:35;3.13;;;2.80;;
13743;SDS011;6943;52.368;9.966;2022-10-16T05:44:03;5.33;;;3.37;;
13743;SDS011;6943;52.368;9.966;2022-10-16T05:46:29;4.07;;;3.33;;
13743;SDS011;6943;52.368;9.966;2022-10-16T05:48:55;4.80;;;3.20;;
13743;SDS011;6943;52.368;9.966;2022-10-16T05:51:20;4.50;;;3.80;;
13743;SDS011;6943;52.368;9.966;2022-10-16T05:53:46;4.47;;;3.23;;
13743;SDS011;6943;52.368;9.966;2022-10-16T05:56:12;4.80;;;3.30;;
13743;SDS011;6943;52.368;9.966;2022-10-16T05:58:37;5.00;;;3.20;;
13743;SDS011;6943;52.368;9.966;2022-10-16T06:01:09;4.80;;;3.27;;
13743;SDS011;6943;52.368;9.966;2022-10-16T06:03:37;7.07;;;3.37;;
13743;SDS011;6943;52.368;9.966;2022-10-16T06:08:35;4.73;;;3.70;;
13743;SDS011;6943;52.368;9.966;2022-10-16T06:11:02;5.87;;;3.10;;
13743;SDS011;6943;52.368;9.966;2022-10-16T06:13:28;6.73;;;3.27;;
13743;SDS011;6943;52.368;9.966;2022-10-16T06:15:56;5.07;;;3.20;;
13743;SDS011;6943;52.368;9.966;2022-10-16T06:18:23;3.83;;;3.20;;
13743;SDS011;6943;52.368;9.966;2022-10-16T06:20:48;3.63;;;3.33;;
13743;SDS011;6943;52.368;9.966;2022-10-16T06:23:14;5.07;;;3.20;;
13743;SDS011;6943;52.368;9.966;2022-10-16T06:25:39;4.13;;;3.30;;
13743;SDS011;6943;52.368;9.966;2022-10-16T06:28:05;4.00;;;3.00;;
13743;SDS011;6943;52.368;9.966;2022-10-16T06:30:30;4.27;;;3.17;;
13743;SDS011;6943;52.368;9.966;2022-10-16T06:32:56;4.50;;;3.10;;
13743;SDS011;6943;52.368;9.966;2022-10-16T06:35:22;7.20;;;3.60;;
13743;SDS011;6943;52.368;9.966;2022-10-16T06:37:47;3.43;;;3.13;;
13743;SDS011;6943;52.368;9.966;2022-10-16T06:40:13;3.57;;;3.10;;
13743;SDS011;6943;52.368;9.966;2022-10-16T06:42:39;4.07;;;3.00;;
13743;SDS011;6943;52.368;9.966;2022-10-16T06:45:05;3.60;;;2.63;;
13743;SDS011;6943;52.368;9.966;2022-10-16T06:47:31;5.33;;;2.63;;
13743;SDS011;6943;52.368;9.966;2022-10-16T06:49:56;7.43;;;2.53;;
13743;SDS011;6943;52.368;9.966;2022-10-16T06:52:22;3.43;;;2.90;;
13743;SDS011;6943;52.368;9.966;2022-10-16T06:54:47;2.73;;;2.30;;
13743;SDS011;6943;52.368;9.966;2022-10-16T06:57:14;2.43;;;2.23;;
13743;SDS011;6943;52.368;9.966;2022-10-16T06:59:39;2.17;;;1.97;;
13743;SDS011;6943;52.368;9.966;2022-10-16T07:02:05;2.80;;;2.30;;
13743;SDS011;6943;52.368;9.966;2022-10-16T07:04:31;3.07;;;2.40;;
13743;SDS011;6943;52.368;9.966;2022-10-16T07:06:57;2.53;;;1.97;;
13743;SDS011;6943;52.368;9.966;2022-10-16T07:09:24;2.20;;;2.00;;
13743;SDS011;6943;52.368;9.966;2022-10-16T07:11:50;2.90;;;2.17;;
13743;SDS011;6943;52.368;9.966;2022-10-16T07:14:16;2.87;;;2.07;;
13743;SDS011;6943;52.368;9.966;2022-10-16T07:16:44;3.50;;;2.10;;
13743;SDS011;6943;52.368;9.966;2022-10-16T07:19:10;2.10;;;1.67;;
13743;SDS011;6943;52.368;9.966;2022-10-16T07:21:38;2.97;;;1.97;;
13743;SDS011;6943;52.368;9.966;2022-10-16T07:24:04;2.33;;;1.70;;
13743;SDS011;6943;52.368;9.966;2022-10-16T07:26:32;2.93;;;1.87;;
13743;SDS011;6943;52.368;9.966;2022-10-16T07:29:00;4.27;;;1.93;;
13743;SDS011;6943;52.368;9.966;2022-10-16T07:31:25;2.40;;;1.80;;
13743;SDS011;6943;52.368;9.966;2022-10-16T07:33:51;3.00;;;2.00;;
13743;SDS011;6943;52.368;9.966;2022-10-16T07:36:18;2.57;;;1.57;;
13743;SDS011;6943;52.368;9.966;2022-10-16T07:38:44;1.77;;;1.53;;
13743;SDS011;6943;52.368;9.966;2022-10-16T07:41:11;1.97;;;1.77;;
13743;SDS011;6943;52.368;9.966;2022-10-16T07:43:39;4.30;;;2.10;;
13743;SDS011;6943;52.368;9.966;2022-10-16T07:46:05;3.47;;;1.77;;
13743;SDS011;6943;52.368;9.966;2022-10-16T07:48:31;1.67;;;1.53;;
13743;SDS011;6943;52.368;9.966;2022-10-16T07:50:59;2.03;;;1.67;;
13743;SDS011;6943;52.368;9.966;2022-10-16T07:53:25;4.83;;;1.73;;
13743;SDS011;6943;52.368;9.966;2022-10-16T07:55:51;4.63;;;3.20;;
13743;SDS011;6943;52.368;9.966;2022-10-16T07:58:17;3.47;;;3.00;;
13743;SDS011;6943;52.368;9.966;2022-10-16T08:00:42;2.17;;;1.30;;
13743;SDS011;6943;52.368;9.966;2022-10-16T08:03:08;2.60;;;1.50;;
13743;SDS011;6943;52.368;9.966;2022-10-16T08:05:34;2.43;;;1.30;;
13743;SDS011;6943;52.368;9.966;2022-10-16T08:08:00;2.37;;;1.30;;
13743;SDS011;6943;52.368;9.966;2022-10-16T08:10:27;1.83;;;1.30;;
13743;SDS011;6943;52.368;9.966;2022-10-16T08:12:54;2.67;;;1.35;;
13743;SDS011;6943;52.368;9.966;2022-10-16T08:15:19;1.60;;;1.45;;
13743;SDS011;6943;52.368;9.966;2022-10-16T08:17:59;1.20;;;1.10;;
13743;SDS011;6943;52.368;9.966;2022-10-16T08:20:28;2.42;;;1.17;;
13743;SDS011;6943;52.368;9.966;2022-10-16T08:22:54;1.52;;;1.17;;
13743;SDS011;6943;52.368;9.966;2022-10-16T08:25:21;1.65;;;1.33;;
13743;SDS011;6943;52.368;9.966;2022-10-16T08:27:48;2.25;;;1.40;;
13743;SDS011;6943;52.368;9.966;2022-10-16T08:30:14;3.05;;;1.25;;
13743;SDS011;6943;52.368;9.966;2022-10-16T08:32:40;1.98;;;1.00;;
13743;SDS011;6943;52.368;9.966;2022-10-16T08:35:07;2.60;;;1.00;;
13743;SDS011;6943;52.368;9.966;2022-10-16T08:37:36;3.13;;;1.05;;
13743;SDS011;6943;52.368;9.966;2022-10-16T08:40:02;1.33;;;0.95;;
13743;SDS011;6943;52.368;9.966;2022-10-16T08:45:08;1.17;;;0.90;;
13743;SDS011;6943;52.368;9.966;2022-10-16T08:47:49;4.40;;;1.20;;
13743;SDS011;6943;52.368;9.966;2022-10-16T08:50:39;1.88;;;1.02;;
13743;SDS011;6943;52.368;9.966;2022-10-16T08:53:05;1.10;;;0.90;;
13743;SDS011;6943;52.368;9.966;2022-10-16T08:55:38;1.02;;;0.93;;
13743;SDS011;6943;52.368;9.966;2022-10-16T08:58:18;1.67;;;0.95;;
13743;SDS011;6943;52.368;9.966;2022-10-16T09:00:46;0.80;;;0.80;;
13743;SDS011;6943;52.368;9.966;2022-10-16T09:03:29;2.78;;;0.88;;
13743;SDS011;6943;52.368;9.966;2022-10-16T09:06:08;2.28;;;1.10;;
13743;SDS011;6943;52.368;9.966;2022-10-16T09:08:51;0.80;;;0.80;;
13743;SDS011;6943;52.368;9.966;2022-10-16T09:11:48;1.77;;;0.88;;
13743;SDS011;6943;52.368;9.966;2022-10-16T09:17:25;2.30;;;0.80;;
13743;SDS011;6943;52.368;9.966;2022-10-16T09:20:13;1.45;;;0.88;;
13743;SDS011;6943;52.368;9.966;2022-10-16T09:22:48;1.00;;;0.70;;
13743;SDS011;6943;52.368;9.966;2022-10-16T09:25:20;1.58;;;1.10;;
13743;SDS011;6943;52.368;9.966;2022-10-16T09:27:47;1.13;;;0.80;;
13743;SDS011;6943;52.368;9.966;2022-10-16T09:30:18;1.50;;;1.00;;
13743;SDS011;6943;52.368;9.966;2022-10-16T09:32:45;1.93;;;1.00;;
13743;SDS011;6943;52.368;9.966;2022-10-16T09:35:15;2.87;;;0.90;;
13743;SDS011;6943;52.368;9.966;2022-10-16T09:37:44;1.73;;;0.83;;
13743;SDS011;6943;52.368;9.966;2022-10-16T09:40:25;2.37;;;1.00;;
13743;SDS011;6943;52.368;9.966;2022-10-16T09:42:52;1.47;;;1.00;;
13743;SDS011;6943;52.368;9.966;2022-10-16T09:45:26;2.47;;;0.93;;
13743;SDS011;6943;52.368;9.966;2022-10-16T09:47:54;3.20;;;0.97;;
13743;SDS011;6943;52.368;9.966;2022-10-16T09:50:28;2.40;;;1.00;;
13743;SDS011;6943;52.368;9.966;2022-10-16T09:53:13;4.37;;;0.80;;
13743;SDS011;6943;52.368;9.966;2022-10-16T09:55:49;3.70;;;1.17;;
13743;SDS011;6943;52.368;9.966;2022-10-16T09:58:16;1.73;;;1.00;;
13743;SDS011;6943;52.368;9.966;2022-10-16T10:00:42;2.47;;;0.90;;
13743;SDS011;6943;52.368;9.966;2022-10-16T10:08:56;1.33;;;1.00;;
13743;SDS011;6943;52.368;9.966;2022-10-16T10:14:15;0.70;;;0.70;;
13743;SDS011;6943;52.368;9.966;2022-10-16T10:16:46;3.13;;;1.13;;
13743;SDS011;6943;52.368;9.966;2022-10-16T10:19:14;2.17;;;1.33;;
13743;SDS011;6943;52.368;9.966;2022-10-16T10:21:43;3.03;;;0.80;;
13743;SDS011;6943;52.368;9.966;2022-10-16T10:24:10;1.27;;;0.90;;
13743;SDS011;6943;52.368;9.966;2022-10-16T10:26:50;2.00;;;1.10;;
13743;SDS011;6943;52.368;9.966;2022-10-16T10:37:52;2.93;;;1.10;;
13743;SDS011;6943;52.368;9.966;2022-10-16T10:40:45;2.23;;;0.80;;
13743;SDS011;6943;52.368;9.966;2022-10-16T10:46:08;1.23;;;0.93;;
13743;SDS011;6943;52.368;9.966;2022-10-16T10:48:57;2.13;;;0.70;;
13743;SDS011;6943;52.368;9.966;2022-10-16T10:52:13;2.10;;;1.10;;
13743;SDS011;6943;52.368;9.966;2022-10-16T10:54:53;2.73;;;0.77;;
13743;SDS011;6943;52.368;9.966;2022-10-16T10:57:32;6.33;;;1.00;;
13743;SDS011;6943;52.368;9.966;2022-10-16T11:03:21;1.60;;;0.80;;
13743;SDS011;6943;52.368;9.966;2022-10-16T11:06:08;2.77;;;0.93;;
13743;SDS011;6943;52.368;9.966;2022-10-16T11:08:40;1.93;;;0.77;;
13743;SDS011;6943;52.368;9.966;2022-10-16T11:11:20;2.80;;;1.00;;
13743;SDS011;6943;52.368;9.966;2022-10-16T11:16:18;1.57;;;1.00;;
13743;SDS011;6943;52.368;9.966;2022-10-16T11:21:45;1.87;;;0.70;;
13743;SDS011;6943;52.368;9.966;2022-10-16T11:24:20;3.73;;;1.00;;
13743;SDS011;6943;52.368;9.966;2022-10-16T11:26:52;1.03;;;0.87;;
13743;SDS011;6943;52.368;9.966;2022-10-16T11:29:22;2.93;;;1.43;;
13743;SDS011;6943;52.368;9.966;2022-10-16T11:31:52;3.20;;;1.03;;
13743;SDS011;6943;52.368;9.966;2022-10-16T11:36:56;2.17;;;1.00;;
13743;SDS011;6943;52.368;9.966;2022-10-16T11:39:30;2.03;;;1.07;;
13743;SDS011;6943;52.368;9.966;2022-10-16T11:41:59;2.10;;;0.93;;
13743;SDS011;6943;52.368;9.966;2022-10-16T11:49:43;3.90;;;1.13;;
13743;SDS011;6943;52.368;9.966;2022-10-16T11:57:27;2.37;;;0.80;;
13743;SDS011;6943;52.368;9.966;2022-10-16T11:59:59;2.90;;;0.90;;
13743;SDS011;6943;52.368;9.966;2022-10-16T12:08:39;1.67;;;0.97;;
13743;SDS011;6943;52.368;9.966;2022-10-16T12:11:06;2.47;;;0.87;;
13743;SDS011;6943;52.368;9.966;2022-10-16T12:13:38;3.13;;;0.80;;
13743;SDS011;6943;52.368;9.966;2022-10-16T12:16:26;2.30;;;0.77;;
13743;SDS011;6943;52.368;9.966;2022-10-16T12:19:02;1.43;;;0.60;;
13743;SDS011;6943;52.368;9.966;2022-10-16T12:21:36;1.97;;;0.77;;
13743;SDS011;6943;52.368;9.966;2022-10-16T12:24:02;3.97;;;0.90;;
13743;SDS011;6943;52.368;9.966;2022-10-16T12:26:31;2.00;;;0.97;;
13743;SDS011;6943;52.368;9.966;2022-10-16T12:29:11;1.63;;;0.60;;
13743;SDS011;6943;52.368;9.966;2022-10-16T12:31:56;1.37;;;0.80;;
13743;SDS011;6943;52.368;9.966;2022-10-16T12:36:50;1.77;;;0.70;;
13743;SDS011;6943;52.368;9.966;2022-10-16T12:39:20;1.17;;;0.93;;
13743;SDS011;6943;52.368;9.966;2022-10-16T12:42:04;1.10;;;0.60;;
13743;SDS011;6943;52.368;9.966;2022-10-16T12:44:42;1.73;;;0.70;;
13743;SDS011;6943;52.368;9.966;2022-10-16T12:47:18;1.63;;;0.60;;
13743;SDS011;6943;52.368;9.966;2022-10-16T12:50:03;1.63;;;0.60;;
13743;SDS011;6943;52.368;9.966;2022-10-16T12:53:02;4.00;;;1.07;;
13743;SDS011;6943;52.368;9.966;2022-10-16T12:55:32;1.73;;;0.70;;
13743;SDS011;6943;52.368;9.966;2022-10-16T12:58:18;1.50;;;0.70;;
13743;SDS011;6943;52.368;9.966;2022-10-16T13:00:50;1.77;;;1.00;;
13743;SDS011;6943;52.368;9.966;2022-10-16T13:14:09;2.30;;;0.60;;
13743;SDS011;6943;52.368;9.966;2022-10-16T13:17:30;2.13;;;0.80;;
13743;SDS011;6943;52.368;9.966;2022-10-16T13:20:00;3.00;;;0.80;;
13743;SDS011;6943;52.368;9.966;2022-10-16T13:22:54;2.83;;;0.63;;
13743;SDS011;6943;52.368;9.966;2022-10-16T13:28:07;2.33;;;0.70;;
13743;SDS011;6943;52.368;9.966;2022-10-16T13:30:41;1.50;;;0.70;;
13743;SDS011;6943;52.368;9.966;2022-10-16T13:35:51;2.00;;;0.90;;
13743;SDS011;6943;52.368;9.966;2022-10-16T13:38:19;2.60;;;0.90;;
13743;SDS011;6943;52.368;9.966;2022-10-16T13:40:48;1.20;;;0.63;;
13743;SDS011;6943;52.368;9.966;2022-10-16T13:43:14;2.30;;;0.63;;
13743;SDS011;6943;52.368;9.966;2022-10-16T13:45:51;2.27;;;0.63;;
13743;SDS011;6943;52.368;9.966;2022-10-16T13:48:18;1.83;;;0.70;;
13743;SDS011;6943;52.368;9.966;2022-10-16T13:50:43;2.63;;;1.07;;
13743;SDS011;6943;52.368;9.966;2022-10-16T13:53:13;2.83;;;1.03;;
13743;SDS011;6943;52.368;9.966;2022-10-16T13:55:39;2.23;;;1.00;;
13743;SDS011;6943;52.368;9.966;2022-10-16T13:58:06;1.80;;;0.80;;
13743;SDS011;6943;52.368;9.966;2022-10-16T14:00:33;2.40;;;0.97;;
13743;SDS011;6943;52.368;9.966;2022-10-16T14:03:04;3.97;;;0.90;;
13743;SDS011;6943;52.368;9.966;2022-10-16T14:05:32;2.63;;;0.60;;
13743;SDS011;6943;52.368;9.966;2022-10-16T14:07:59;0.97;;;0.50;;
13743;SDS011;6943;52.368;9.966;2022-10-16T14:10:26;2.13;;;0.80;;
13743;SDS011;6943;52.368;9.966;2022-10-16T14:12:58;1.37;;;0.60;;
13743;SDS011;6943;52.368;9.966;2022-10-16T14:15:26;2.03;;;0.90;;
13743;SDS011;6943;52.368;9.966;2022-10-16T14:17:52;2.30;;;0.90;;
13743;SDS011;6943;52.368;9.966;2022-10-16T14:20:19;1.00;;;0.90;;
13743;SDS011;6943;52.368;9.966;2022-10-16T14:22:57;2.50;;;1.03;;
13743;SDS011;6943;52.368;9.966;2022-10-16T14:25:43;2.73;;;1.10;;
13743;SDS011;6943;52.368;9.966;2022-10-16T14:28:18;1.63;;;0.90;;
13743;SDS011;6943;52.368;9.966;2022-10-16T14:30:58;2.43;;;0.90;;
13743;SDS011;6943;52.368;9.966;2022-10-16T14:36:11;1.70;;;0.97;;
13743;SDS011;6943;52.368;9.966;2022-10-16T14:38:39;2.20;;;1.03;;
13743;SDS011;6943;52.368;9.966;2022-10-16T14:41:07;2.00;;;1.27;;
13743;SDS011;6943;52.368;9.966;2022-10-16T14:43:34;1.27;;;0.83;;
13743;SDS011;6943;52.368;9.966;2022-10-16T14:46:06;1.77;;;1.17;;
13743;SDS011;6943;52.368;9.966;2022-10-16T14:48:40;3.70;;;1.20;;
13743;SDS011;6943;52.368;9.966;2022-10-16T14:51:14;1.63;;;1.33;;
13743;SDS011;6943;52.368;9.966;2022-10-16T14:53:44;2.47;;;1.07;;
13743;SDS011;6943;52.368;9.966;2022-10-16T14:56:18;2.13;;;1.47;;
13743;SDS011;6943;52.368;9.966;2022-10-16T14:58:46;2.87;;;1.13;;
13743;SDS011;6943;52.368;9.966;2022-10-16T15:01:12;3.00;;;1.33;;
13743;SDS011;6943;52.368;9.966;2022-10-16T15:03:38;3.33;;;1.40;;
13743;SDS011;6943;52.368;9.966;2022-10-16T15:06:04;1.63;;;1.17;;
13743;SDS011;6943;52.368;9.966;2022-10-16T15:08:43;2.30;;;1.40;;
13743;SDS011;6943;52.368;9.966;2022-10-16T15:11:12;2.20;;;0.93;;
13743;SDS011;6943;52.368;9.966;2022-10-16T15:13:40;1.87;;;0.90;;
13743;SDS011;6943;52.368;9.966;2022-10-16T15:16:12;2.10;;;0.90;;
13743;SDS011;6943;52.368;9.966;2022-10-16T15:18:39;2.17;;;0.97;;
13743;SDS011;6943;52.368;9.966;2022-10-16T15:21:05;2.87;;;1.20;;
13743;SDS011;6943;52.368;9.966;2022-10-16T15:23:31;1.63;;;1.33;;
13743;SDS011;6943;52.368;9.966;2022-10-16T15:25:56;4.40;;;1.30;;
13743;SDS011;6943;52.368;9.966;2022-10-16T15:28:22;2.10;;;1.30;;
13743;SDS011;6943;52.368;9.966;2022-10-16T15:30:50;7.50;;;4.17;;
13743;SDS011;6943;52.368;9.966;2022-10-16T15:33:21;2.00;;;1.50;;
13743;SDS011;6943;52.368;9.966;2022-10-16T15:35:49;1.50;;;1.40;;
13743;SDS011;6943;52.368;9.966;2022-10-16T15:38:16;3.20;;;1.60;;
13743;SDS011;6943;52.368;9.966;2022-10-16T15:40:43;2.40;;;1.50;;
13743;SDS011;6943;52.368;9.966;2022-10-16T15:43:08;2.07;;;1.57;;
13743;SDS011;6943;52.368;9.966;2022-10-16T15:45:35;2.53;;;1.43;;
13743;SDS011;6943;52.368;9.966;2022-10-16T15:48:00;3.20;;;2.03;;
13743;SDS011;6943;52.368;9.966;2022-10-16T15:50:26;2.40;;;1.80;;
13743;SDS011;6943;52.368;9.966;2022-10-16T15:52:52;3.17;;;1.73;;
13743;SDS011;6943;52.368;9.966;2022-10-16T15:55:17;5.43;;;2.00;;
13743;SDS011;6943;52.368;9.966;2022-10-16T15:57:43;3.00;;;1.90;;
13743;SDS011;6943;52.368;9.966;2022-10-16T16:00:11;2.10;;;1.83;;
13743;SDS011;6943;52.368;9.966;2022-10-16T16:02:39;2.87;;;2.00;;
13743;SDS011;6943;52.368;9.966;2022-10-16T16:05:06;2.70;;;2.10;;
13743;SDS011;6943;52.368;9.966;2022-10-16T16:07:33;5.33;;;2.10;;
13743;SDS011;6943;52.368;9.966;2022-10-16T16:10:03;6.07;;;2.30;;
13743;SDS011;6943;52.368;9.966;2022-10-16T16:12:31;4.00;;;2.23;;
13743;SDS011;6943;52.368;9.966;2022-10-16T16:14:56;2.70;;;2.10;;
13743;SDS011;6943;52.368;9.966;2022-10-16T16:17:22;2.77;;;1.70;;
13743;SDS011;6943;52.368;9.966;2022-10-16T16:19:49;4.83;;;2.00;;
13743;SDS011;6943;52.368;9.966;2022-10-16T16:22:14;3.00;;;2.37;;
13743;SDS011;6943;52.368;9.966;2022-10-16T16:24:40;4.07;;;2.43;;
13743;SDS011;6943;52.368;9.966;2022-10-16T16:27:06;4.27;;;2.60;;
13743;SDS011;6943;52.368;9.966;2022-10-16T16:29:31;3.43;;;2.50;;
13743;SDS011;6943;52.368;9.966;2022-10-16T16:31:57;3.90;;;2.30;;
13743;SDS011;6943;52.368;9.966;2022-10-16T16:34:25;1.70;;;1.60;;
13743;SDS011;6943;52.368;9.966;2022-10-16T16:36:52;8.53;;;5.37;;
13743;SDS011;6943;52.368;9.966;2022-10-16T16:39:18;6.97;;;4.57;;
13743;SDS011;6943;52.368;9.966;2022-10-16T16:41:43;8.73;;;5.13;;
13743;SDS011;6943;52.368;9.966;2022-10-16T16:44:10;26.50;;;24.27;;
13743;SDS011;6943;52.368;9.966;2022-10-16T16:46:37;23.33;;;21.43;;
13743;SDS011;6943;52.368;9.966;2022-10-16T16:49:04;15.67;;;14.07;;
13743;SDS011;6943;52.368;9.966;2022-10-16T16:51:30;9.23;;;8.43;;